FDX4 ZGGG-VIDP
Flight info
| Callsign | FDX4 |
|---|---|
| Flight time | 5h 18m |
| Altitude | 36100 |
| Route | VIBOS9 VIBOS R473 ZUH R200 LH R339 BSE A599 LINSO/N0490F360 A599 LSO A201 ANSOS/N0487F380 A201 LKN R594 JAL JAL7S |
| Aircraft | MD11/H-SDE1E2E3FGHIJ2J3J4J5M1RWXY/LB1D1 |
Departure
| Time | 2026-05-07 10:59 |
|---|---|
| Airport | Guangzhou Baiyun International Airport (ZGGG) |
Arrival
| Time | 2026-05-07 16:18 |
|---|---|
| Airport | Indira Gandhi International Airport (VIDP) |
| Time | Latitude | Longitude | Altitude | Speed | Heading |
|---|---|---|---|---|---|
| 2026-05-07 10:34 | 23.40937 | 113.29618 | 58 ft | 0 kts | 104° |
| 2026-05-07 10:34 | 23.40940 | 113.29607 | 60 ft | 0 kts | 104° |
| 2026-05-07 10:46 | 23.40942 | 113.29597 | 59 ft | 3 kts | 104° |
| 2026-05-07 10:46 | 23.40947 | 113.29575 | 59 ft | 3 kts | 104° |
| 2026-05-07 10:46 | 23.40951 | 113.29557 | 65 ft | 3 kts | 112° |
| 2026-05-07 10:47 | 23.40959 | 113.29539 | 66 ft | 3 kts | 136° |
| 2026-05-07 10:47 | 23.40972 | 113.29528 | 64 ft | 3 kts | 168° |
| 2026-05-07 10:47 | 23.40990 | 113.29526 | 66 ft | 3 kts | 190° |
| 2026-05-07 10:47 | 23.41009 | 113.29530 | 59 ft | 2 kts | 194° |
| 2026-05-07 10:48 | 23.41011 | 113.29531 | 64 ft | 0 kts | 194° |
| 2026-05-07 10:50 | 23.41008 | 113.29530 | 58 ft | 2 kts | 194° |
| 2026-05-07 10:50 | 23.40974 | 113.29521 | 58 ft | 9 kts | 194° |
| 2026-05-07 10:50 | 23.40905 | 113.29502 | 58 ft | 11 kts | 194° |
| 2026-05-07 10:51 | 23.40824 | 113.29480 | 60 ft | 13 kts | 194° |
| 2026-05-07 10:51 | 23.40737 | 113.29457 | 65 ft | 13 kts | 194° |
| 2026-05-07 10:51 | 23.40698 | 113.29458 | 66 ft | 2 kts | 152° |
| 2026-05-07 10:51 | 23.40689 | 113.29468 | 66 ft | 1 kts | 131° |
| 2026-05-07 10:52 | 23.40684 | 113.29480 | 56 ft | 3 kts | 115° |
| 2026-05-07 10:52 | 23.40673 | 113.29509 | 66 ft | 3 kts | 108° |
| 2026-05-07 10:52 | 23.40663 | 113.29543 | 58 ft | 6 kts | 106° |
| 2026-05-07 10:52 | 23.40653 | 113.29592 | 58 ft | 8 kts | 102° |
| 2026-05-07 10:53 | 23.40639 | 113.29659 | 60 ft | 10 kts | 103° |
| 2026-05-07 10:53 | 23.40621 | 113.29745 | 65 ft | 13 kts | 103° |
| 2026-05-07 10:53 | 23.40597 | 113.29844 | 63 ft | 14 kts | 104° |
| 2026-05-07 10:53 | 23.40570 | 113.29957 | 61 ft | 16 kts | 104° |
| 2026-05-07 10:54 | 23.40541 | 113.30085 | 66 ft | 18 kts | 104° |
| 2026-05-07 10:54 | 23.40508 | 113.30226 | 60 ft | 20 kts | 105° |
| 2026-05-07 10:54 | 23.40474 | 113.30377 | 64 ft | 21 kts | 104° |
| 2026-05-07 10:54 | 23.40437 | 113.30536 | 64 ft | 21 kts | 104° |
| 2026-05-07 10:55 | 23.40404 | 113.30685 | 58 ft | 19 kts | 103° |
| 2026-05-07 10:55 | 23.40373 | 113.30822 | 59 ft | 18 kts | 104° |
| 2026-05-07 10:55 | 23.40344 | 113.30950 | 59 ft | 17 kts | 104° |
| 2026-05-07 10:55 | 23.40327 | 113.31054 | 58 ft | 7 kts | 84° |
| 2026-05-07 10:56 | 23.40349 | 113.31080 | 66 ft | 7 kts | 28° |
| 2026-05-07 10:56 | 23.40440 | 113.31108 | 59 ft | 21 kts | 13° |
| 2026-05-07 10:56 | 23.40606 | 113.31154 | 58 ft | 22 kts | 14° |
| 2026-05-07 10:56 | 23.40711 | 113.31185 | 58 ft | 11 kts | 25° |
| 2026-05-07 10:57 | 23.40726 | 113.31228 | 62 ft | 5 kts | 98° |
| 2026-05-07 10:57 | 23.40721 | 113.31247 | 59 ft | 0 kts | 104° |
| 2026-05-07 10:57 | 23.40720 | 113.31252 | 66 ft | 2 kts | 104° |
| 2026-05-07 10:58 | 23.40713 | 113.31284 | 61 ft | 7 kts | 104° |
| 2026-05-07 10:58 | 23.40695 | 113.31343 | 56 ft | 9 kts | 114° |
| 2026-05-07 10:58 | 23.40655 | 113.31369 | 59 ft | 5 kts | 177° |
| 2026-05-07 10:58 | 23.40630 | 113.31362 | 63 ft | 3 kts | 194° |
| 2026-05-07 10:59 | 23.40597 | 113.31353 | 56 ft | 24 kts | 194° |
| 2026-05-07 10:59 | 23.40118 | 113.31224 | 60 ft | 115 kts | 194° |
| 2026-05-07 10:59 | 23.39086 | 113.30956 | 84 ft | 183 kts | 192° |
| 2026-05-07 10:59 | 23.37799 | 113.30625 | 663 ft | 194 kts | 192° |
| 2026-05-07 11:00 | 23.36521 | 113.30263 | 1728 ft | 183 kts | 194° |
| 2026-05-07 11:00 | 23.35250 | 113.29879 | 2515 ft | 197 kts | 194° |
| 2026-05-07 11:00 | 23.33933 | 113.29477 | 3408 ft | 194 kts | 194° |
| 2026-05-07 11:00 | 23.32531 | 113.29096 | 3752 ft | 225 kts | 193° |
| 2026-05-07 11:01 | 23.30940 | 113.28686 | 4042 ft | 241 kts | 191° |
| 2026-05-07 11:01 | 23.29271 | 113.28488 | 4608 ft | 243 kts | 182° |
| 2026-05-07 11:01 | 23.27563 | 113.28444 | 5157 ft | 245 kts | 181° |
| 2026-05-07 11:01 | 23.25850 | 113.28425 | 5678 ft | 247 kts | 181° |
| 2026-05-07 11:02 | 23.24104 | 113.28410 | 5992 ft | 258 kts | 181° |
| 2026-05-07 11:02 | 23.22255 | 113.28392 | 6186 ft | 271 kts | 181° |
| 2026-05-07 11:02 | 23.20361 | 113.28374 | 6719 ft | 273 kts | 181° |
| 2026-05-07 11:02 | 23.18462 | 113.28204 | 7513 ft | 275 kts | 190° |
| 2026-05-07 11:03 | 23.16562 | 113.27806 | 8276 ft | 280 kts | 193° |
| 2026-05-07 11:03 | 23.14647 | 113.27349 | 9023 ft | 284 kts | 193° |
| 2026-05-07 11:03 | 23.12707 | 113.26875 | 9758 ft | 288 kts | 194° |
| 2026-05-07 11:03 | 23.10725 | 113.26387 | 10248 ft | 303 kts | 194° |
| 2026-05-07 11:04 | 23.08583 | 113.25858 | 10393 ft | 329 kts | 194° |
| 2026-05-07 11:04 | 23.06265 | 113.25287 | 10527 ft | 354 kts | 194° |
| 2026-05-07 11:04 | 23.03851 | 113.24685 | 11064 ft | 364 kts | 194° |
| 2026-05-07 11:04 | 23.01375 | 113.24064 | 11819 ft | 368 kts | 195° |
| 2026-05-07 11:05 | 22.98865 | 113.23433 | 12587 ft | 372 kts | 195° |
| 2026-05-07 11:05 | 22.96332 | 113.22797 | 13326 ft | 376 kts | 195° |
| 2026-05-07 11:05 | 22.93787 | 113.22160 | 14030 ft | 380 kts | 195° |
| 2026-05-07 11:05 | 22.91202 | 113.21516 | 14726 ft | 384 kts | 195° |
| 2026-05-07 11:06 | 22.88589 | 113.20863 | 15418 ft | 387 kts | 195° |
| 2026-05-07 11:06 | 22.85948 | 113.20203 | 16076 ft | 391 kts | 195° |
| 2026-05-07 11:06 | 22.83286 | 113.19539 | 16713 ft | 395 kts | 195° |
| 2026-05-07 11:06 | 22.80596 | 113.18868 | 17330 ft | 398 kts | 195° |
| 2026-05-07 11:07 | 22.77886 | 113.18194 | 17944 ft | 402 kts | 195° |
| 2026-05-07 11:07 | 22.75148 | 113.17513 | 18524 ft | 406 kts | 195° |
| 2026-05-07 11:07 | 22.72386 | 113.16825 | 19075 ft | 409 kts | 195° |
| 2026-05-07 11:07 | 22.69592 | 113.16130 | 19621 ft | 413 kts | 195° |
| 2026-05-07 11:08 | 22.66775 | 113.15430 | 20135 ft | 418 kts | 195° |
| 2026-05-07 11:08 | 22.63927 | 113.14723 | 20646 ft | 422 kts | 195° |
| 2026-05-07 11:08 | 22.61059 | 113.14010 | 21147 ft | 425 kts | 196° |
| 2026-05-07 11:08 | 22.58165 | 113.13291 | 21645 ft | 429 kts | 196° |
| 2026-05-07 11:09 | 22.55241 | 113.12563 | 22145 ft | 433 kts | 196° |
| 2026-05-07 11:09 | 22.52292 | 113.11831 | 22624 ft | 436 kts | 196° |
| 2026-05-07 11:09 | 22.49325 | 113.11096 | 23087 ft | 440 kts | 196° |
| 2026-05-07 11:09 | 22.46327 | 113.10353 | 23527 ft | 444 kts | 196° |
| 2026-05-07 11:10 | 22.43308 | 113.09605 | 23994 ft | 447 kts | 196° |
| 2026-05-07 11:10 | 22.40263 | 113.08851 | 24425 ft | 451 kts | 196° |
| 2026-05-07 11:10 | 22.37189 | 113.08088 | 24846 ft | 454 kts | 196° |
| 2026-05-07 11:10 | 22.34099 | 113.07323 | 25281 ft | 458 kts | 196° |
| 2026-05-07 11:11 | 22.30986 | 113.06554 | 25687 ft | 461 kts | 196° |
| 2026-05-07 11:11 | 22.27845 | 113.05778 | 26086 ft | 464 kts | 196° |
| 2026-05-07 11:11 | 22.24691 | 113.05000 | 26485 ft | 467 kts | 196° |
| 2026-05-07 11:11 | 22.21508 | 113.04216 | 26854 ft | 470 kts | 195° |
| 2026-05-07 11:12 | 22.18325 | 113.03434 | 27203 ft | 473 kts | 196° |
| 2026-05-07 11:12 | 22.15123 | 113.02595 | 27555 ft | 475 kts | 199° |
| 2026-05-07 11:12 | 22.11981 | 113.01493 | 27920 ft | 475 kts | 205° |
| 2026-05-07 11:12 | 22.08996 | 112.99977 | 28233 ft | 474 kts | 213° |
| 2026-05-07 11:13 | 22.06283 | 112.98047 | 28565 ft | 473 kts | 221° |
| 2026-05-07 11:13 | 22.03822 | 112.95700 | 28891 ft | 473 kts | 229° |
| 2026-05-07 11:13 | 22.01677 | 112.93014 | 29198 ft | 473 kts | 236° |
| 2026-05-07 11:13 | 21.99879 | 112.90054 | 29532 ft | 472 kts | 243° |
| 2026-05-07 11:14 | 21.98417 | 112.86887 | 29814 ft | 474 kts | 248° |
| 2026-05-07 11:14 | 21.97139 | 112.83600 | 30140 ft | 476 kts | 250° |
| 2026-05-07 11:14 | 21.95906 | 112.80277 | 30469 ft | 479 kts | 250° |
| 2026-05-07 11:14 | 21.94654 | 112.76951 | 30896 ft | 479 kts | 250° |
| 2026-05-07 11:15 | 21.93378 | 112.73645 | 31335 ft | 478 kts | 249° |
| 2026-05-07 11:15 | 21.92076 | 112.70348 | 31750 ft | 478 kts | 249° |
| 2026-05-07 11:15 | 21.91188 | 112.68129 | 32008 ft | 478 kts | 249° |
| 2026-05-07 11:15 | 21.89869 | 112.64854 | 32430 ft | 476 kts | 249° |
| 2026-05-07 11:16 | 21.88546 | 112.61587 | 32845 ft | 475 kts | 249° |
| 2026-05-07 11:16 | 21.87226 | 112.58329 | 33200 ft | 475 kts | 249° |
| 2026-05-07 11:16 | 21.85911 | 112.55074 | 33581 ft | 473 kts | 249° |
| 2026-05-07 11:16 | 21.84614 | 112.51824 | 33931 ft | 472 kts | 250° |
| 2026-05-07 11:17 | 21.83330 | 112.48578 | 34276 ft | 471 kts | 250° |
| 2026-05-07 11:17 | 21.82052 | 112.45337 | 34601 ft | 470 kts | 250° |
| 2026-05-07 11:17 | 21.80777 | 112.42099 | 34912 ft | 469 kts | 250° |
| 2026-05-07 11:17 | 21.79507 | 112.38871 | 35229 ft | 468 kts | 250° |
| 2026-05-07 11:18 | 21.78237 | 112.35651 | 35499 ft | 467 kts | 250° |
| 2026-05-07 11:18 | 21.76965 | 112.32430 | 35789 ft | 467 kts | 250° |
| 2026-05-07 11:18 | 21.75695 | 112.29216 | 35951 ft | 468 kts | 250° |
| 2026-05-07 11:18 | 21.74417 | 112.25983 | 36000 ft | 471 kts | 250° |
| 2026-05-07 11:19 | 21.71859 | 112.19528 | 35992 ft | 467 kts | 250° |
| 2026-05-07 11:19 | 21.69332 | 112.13156 | 35996 ft | 467 kts | 250° |
| 2026-05-07 11:20 | 21.66784 | 112.06737 | 36001 ft | 467 kts | 250° |
| 2026-05-07 11:20 | 21.64233 | 112.00323 | 35991 ft | 467 kts | 250° |
| 2026-05-07 11:21 | 21.61676 | 111.93907 | 35984 ft | 467 kts | 250° |
| 2026-05-07 11:21 | 21.59119 | 111.87489 | 35990 ft | 467 kts | 250° |
| 2026-05-07 11:22 | 21.56560 | 111.81074 | 35988 ft | 467 kts | 250° |
| 2026-05-07 11:22 | 21.54359 | 111.74529 | 35994 ft | 465 kts | 255° |
| 2026-05-07 11:23 | 21.52495 | 111.67880 | 35985 ft | 465 kts | 256° |
| 2026-05-07 11:23 | 21.50654 | 111.61221 | 35984 ft | 465 kts | 256° |
| 2026-05-07 11:24 | 21.48778 | 111.54562 | 35978 ft | 466 kts | 256° |
| 2026-05-07 11:24 | 21.46887 | 111.47908 | 35983 ft | 466 kts | 255° |
| 2026-05-07 11:25 | 21.44989 | 111.41251 | 35978 ft | 467 kts | 255° |
| 2026-05-07 11:25 | 21.43087 | 111.34592 | 35978 ft | 467 kts | 255° |
| 2026-05-07 11:26 | 21.41182 | 111.27934 | 35980 ft | 467 kts | 255° |
| 2026-05-07 11:26 | 21.39272 | 111.21268 | 35977 ft | 468 kts | 255° |
| 2026-05-07 11:27 | 21.37364 | 111.14615 | 35977 ft | 468 kts | 255° |
| 2026-05-07 11:27 | 21.35448 | 111.07944 | 35977 ft | 468 kts | 255° |
| 2026-05-07 11:28 | 21.33539 | 111.01313 | 35969 ft | 468 kts | 255° |
| 2026-05-07 11:28 | 21.31614 | 110.94635 | 35969 ft | 469 kts | 255° |
| 2026-05-07 11:29 | 21.29673 | 110.87965 | 35968 ft | 468 kts | 255° |
| 2026-05-07 11:29 | 21.27730 | 110.81288 | 35969 ft | 469 kts | 255° |
| 2026-05-07 11:30 | 21.25792 | 110.74609 | 35971 ft | 470 kts | 255° |
| 2026-05-07 11:30 | 21.23852 | 110.67929 | 35969 ft | 469 kts | 255° |
| 2026-05-07 11:31 | 21.21911 | 110.61247 | 35969 ft | 469 kts | 255° |
| 2026-05-07 11:31 | 21.19969 | 110.54571 | 35969 ft | 469 kts | 255° |
| 2026-05-07 11:32 | 21.17050 | 110.44554 | 35968 ft | 470 kts | 255° |
| 2026-05-07 11:33 | 21.15657 | 110.37748 | 35968 ft | 466 kts | 267° |
| 2026-05-07 11:33 | 21.15967 | 110.30865 | 35969 ft | 463 kts | 283° |
| 2026-05-07 11:34 | 21.18009 | 110.24410 | 35969 ft | 461 kts | 296° |
| 2026-05-07 11:34 | 21.21037 | 110.18353 | 35969 ft | 462 kts | 299° |
| 2026-05-07 11:35 | 21.24178 | 110.12342 | 35968 ft | 462 kts | 299° |
| 2026-05-07 11:35 | 21.27239 | 110.06293 | 35972 ft | 461 kts | 298° |
| 2026-05-07 11:36 | 21.30261 | 110.00218 | 35970 ft | 462 kts | 298° |
| 2026-05-07 11:36 | 21.33279 | 109.94130 | 35969 ft | 463 kts | 298° |
| 2026-05-07 11:37 | 21.36298 | 109.88038 | 35968 ft | 463 kts | 298° |
| 2026-05-07 11:37 | 21.39318 | 109.81937 | 35978 ft | 463 kts | 298° |
| 2026-05-07 11:38 | 21.42335 | 109.75838 | 35977 ft | 463 kts | 298° |
| 2026-05-07 11:38 | 21.45349 | 109.69737 | 35977 ft | 463 kts | 298° |
| 2026-05-07 11:39 | 21.48365 | 109.63628 | 35977 ft | 463 kts | 298° |
| 2026-05-07 11:39 | 21.51371 | 109.57524 | 35980 ft | 463 kts | 298° |
| 2026-05-07 11:40 | 21.54379 | 109.51417 | 35977 ft | 463 kts | 298° |
| 2026-05-07 11:40 | 21.57420 | 109.45320 | 35976 ft | 463 kts | 301° |
| 2026-05-07 11:41 | 21.61224 | 109.39748 | 35981 ft | 463 kts | 309° |
| 2026-05-07 11:41 | 21.65419 | 109.34484 | 35982 ft | 464 kts | 310° |
| 2026-05-07 11:42 | 21.69603 | 109.29230 | 35977 ft | 464 kts | 309° |
| 2026-05-07 11:42 | 21.73753 | 109.23921 | 35977 ft | 464 kts | 309° |
| 2026-05-07 11:43 | 21.77886 | 109.18588 | 35984 ft | 465 kts | 308° |
| 2026-05-07 11:43 | 21.82011 | 109.13251 | 35976 ft | 463 kts | 309° |
| 2026-05-07 11:44 | 21.86111 | 109.07969 | 35977 ft | 463 kts | 309° |
| 2026-05-07 11:44 | 21.90261 | 109.02665 | 35987 ft | 464 kts | 309° |
| 2026-05-07 11:45 | 21.94422 | 108.97364 | 35982 ft | 464 kts | 309° |
| 2026-05-07 11:45 | 21.98573 | 108.92051 | 35985 ft | 463 kts | 309° |
| 2026-05-07 11:46 | 22.02717 | 108.86743 | 35985 ft | 463 kts | 309° |
| 2026-05-07 11:46 | 22.06859 | 108.81435 | 35985 ft | 462 kts | 309° |
| 2026-05-07 11:47 | 22.10991 | 108.76133 | 35985 ft | 462 kts | 309° |
| 2026-05-07 11:47 | 22.15118 | 108.70824 | 35993 ft | 462 kts | 309° |
| 2026-05-07 11:48 | 22.19246 | 108.65510 | 35988 ft | 462 kts | 309° |
| 2026-05-07 11:48 | 22.23374 | 108.60196 | 35991 ft | 462 kts | 309° |
| 2026-05-07 11:49 | 22.27500 | 108.54880 | 35992 ft | 462 kts | 309° |
| 2026-05-07 11:49 | 22.31628 | 108.49559 | 35989 ft | 462 kts | 309° |
| 2026-05-07 11:50 | 22.35750 | 108.44240 | 35987 ft | 461 kts | 309° |
| 2026-05-07 11:50 | 22.39872 | 108.38911 | 35985 ft | 463 kts | 309° |
| 2026-05-07 11:51 | 22.43992 | 108.33578 | 35985 ft | 462 kts | 309° |
| 2026-05-07 11:51 | 22.48108 | 108.28250 | 35988 ft | 462 kts | 309° |
| 2026-05-07 11:52 | 22.52226 | 108.22915 | 35987 ft | 462 kts | 309° |
| 2026-05-07 11:52 | 22.56454 | 108.17671 | 35989 ft | 463 kts | 311° |
| 2026-05-07 11:53 | 22.60838 | 108.12631 | 35985 ft | 463 kts | 312° |
| 2026-05-07 11:53 | 22.65277 | 108.07579 | 35988 ft | 463 kts | 312° |
| 2026-05-07 11:54 | 22.69695 | 108.02516 | 35989 ft | 462 kts | 311° |
| 2026-05-07 11:54 | 22.74105 | 107.97444 | 35990 ft | 462 kts | 311° |
| 2026-05-07 11:55 | 22.78518 | 107.92361 | 35988 ft | 463 kts | 311° |
| 2026-05-07 11:55 | 22.82933 | 107.87274 | 35988 ft | 463 kts | 311° |
| 2026-05-07 11:56 | 22.87347 | 107.82182 | 35988 ft | 463 kts | 311° |
| 2026-05-07 11:56 | 22.91757 | 107.77089 | 35987 ft | 463 kts | 311° |
| 2026-05-07 11:57 | 22.96153 | 107.72003 | 35987 ft | 464 kts | 311° |
| 2026-05-07 11:57 | 23.00563 | 107.66898 | 35989 ft | 464 kts | 311° |
| 2026-05-07 11:58 | 23.04974 | 107.61784 | 35992 ft | 464 kts | 311° |
| 2026-05-07 11:58 | 23.09385 | 107.56663 | 35994 ft | 464 kts | 311° |
| 2026-05-07 11:59 | 23.13793 | 107.51548 | 36000 ft | 464 kts | 311° |
| 2026-05-07 11:59 | 23.18208 | 107.46423 | 35995 ft | 464 kts | 311° |
| 2026-05-07 12:00 | 23.22619 | 107.41300 | 35994 ft | 464 kts | 310° |
| 2026-05-07 12:00 | 23.26996 | 107.36212 | 35998 ft | 464 kts | 310° |
| 2026-05-07 12:01 | 23.31401 | 107.31079 | 35996 ft | 464 kts | 310° |
| 2026-05-07 12:01 | 23.35809 | 107.25941 | 36000 ft | 464 kts | 310° |
| 2026-05-07 12:02 | 23.40210 | 107.20805 | 35998 ft | 464 kts | 310° |
| 2026-05-07 12:02 | 23.44609 | 107.15667 | 36000 ft | 464 kts | 310° |
| 2026-05-07 12:03 | 23.49007 | 107.10528 | 36003 ft | 464 kts | 310° |
| 2026-05-07 12:03 | 23.52663 | 107.06251 | 36004 ft | 464 kts | 310° |
| 2026-05-07 12:04 | 23.57049 | 107.01112 | 36008 ft | 464 kts | 310° |
| 2026-05-07 12:04 | 23.61442 | 106.95951 | 36005 ft | 463 kts | 310° |
| 2026-05-07 12:05 | 23.65818 | 106.90794 | 36015 ft | 464 kts | 310° |
| 2026-05-07 12:05 | 23.70204 | 106.85632 | 36016 ft | 464 kts | 310° |
| 2026-05-07 12:06 | 23.74592 | 106.80470 | 36017 ft | 464 kts | 310° |
| 2026-05-07 12:06 | 23.78973 | 106.75313 | 36015 ft | 463 kts | 310° |
| 2026-05-07 12:07 | 23.83347 | 106.70154 | 36026 ft | 463 kts | 310° |
| 2026-05-07 12:07 | 23.87730 | 106.64984 | 36063 ft | 463 kts | 310° |
| 2026-05-07 12:08 | 23.91844 | 106.59610 | 36057 ft | 459 kts | 300° |
| 2026-05-07 12:08 | 23.94264 | 106.53252 | 36070 ft | 453 kts | 282° |
| 2026-05-07 12:09 | 23.95448 | 106.46486 | 36088 ft | 453 kts | 279° |
| 2026-05-07 12:09 | 23.96604 | 106.39714 | 36088 ft | 453 kts | 281° |
| 2026-05-07 12:10 | 23.97887 | 106.33030 | 36089 ft | 452 kts | 281° |
| 2026-05-07 12:10 | 23.99232 | 106.26313 | 36098 ft | 452 kts | 282° |
| 2026-05-07 12:11 | 24.00580 | 106.19608 | 36095 ft | 451 kts | 281° |
| 2026-05-07 12:11 | 24.01922 | 106.12902 | 36112 ft | 452 kts | 281° |
| 2026-05-07 12:12 | 24.03258 | 106.06203 | 36110 ft | 452 kts | 281° |
| 2026-05-07 12:12 | 24.04592 | 105.99489 | 36120 ft | 451 kts | 281° |
| 2026-05-07 12:13 | 24.05925 | 105.92780 | 36119 ft | 452 kts | 281° |
| 2026-05-07 12:13 | 24.07254 | 105.86061 | 36122 ft | 451 kts | 281° |
| 2026-05-07 12:14 | 24.08576 | 105.79354 | 36121 ft | 451 kts | 281° |
| 2026-05-07 12:14 | 24.09897 | 105.72644 | 36158 ft | 451 kts | 281° |
| 2026-05-07 12:15 | 24.11364 | 105.65969 | 36173 ft | 452 kts | 284° |
| 2026-05-07 12:15 | 24.12337 | 105.59220 | 36179 ft | 450 kts | 270° |
| 2026-05-07 12:16 | 24.12114 | 105.52374 | 36174 ft | 450 kts | 268° |
| 2026-05-07 12:16 | 24.11963 | 105.45530 | 36172 ft | 450 kts | 270° |
| 2026-05-07 12:17 | 24.12007 | 105.38687 | 36184 ft | 449 kts | 271° |
| 2026-05-07 12:17 | 24.12119 | 105.31857 | 36176 ft | 448 kts | 271° |
| 2026-05-07 12:18 | 24.12235 | 105.25040 | 36177 ft | 449 kts | 271° |
| 2026-05-07 12:18 | 24.12342 | 105.18211 | 36191 ft | 448 kts | 271° |
| 2026-05-07 12:19 | 24.12444 | 105.11432 | 36188 ft | 448 kts | 271° |
| 2026-05-07 12:19 | 24.12545 | 105.04570 | 36195 ft | 447 kts | 271° |
| 2026-05-07 12:20 | 24.12638 | 104.97804 | 36201 ft | 447 kts | 271° |
| 2026-05-07 12:20 | 24.12730 | 104.90996 | 36201 ft | 447 kts | 271° |
| 2026-05-07 12:21 | 24.12818 | 104.84190 | 36202 ft | 447 kts | 271° |
| 2026-05-07 12:21 | 24.12902 | 104.77384 | 36210 ft | 447 kts | 271° |
| 2026-05-07 12:22 | 24.12975 | 104.70574 | 36210 ft | 447 kts | 270° |
| 2026-05-07 12:22 | 24.13043 | 104.63766 | 36219 ft | 448 kts | 271° |
| 2026-05-07 12:23 | 24.13115 | 104.56957 | 36218 ft | 447 kts | 271° |
| 2026-05-07 12:23 | 24.13189 | 104.50150 | 36227 ft | 447 kts | 271° |
| 2026-05-07 12:24 | 24.13261 | 104.43338 | 36227 ft | 448 kts | 271° |
| 2026-05-07 12:24 | 24.13326 | 104.36517 | 36235 ft | 448 kts | 270° |
| 2026-05-07 12:25 | 24.13393 | 104.29695 | 36237 ft | 449 kts | 270° |
| 2026-05-07 12:25 | 24.13454 | 104.22855 | 36245 ft | 449 kts | 271° |
| 2026-05-07 12:26 | 24.13515 | 104.16015 | 36247 ft | 449 kts | 270° |
| 2026-05-07 12:26 | 24.13572 | 104.09181 | 36255 ft | 449 kts | 270° |
| 2026-05-07 12:27 | 24.13626 | 104.02368 | 36256 ft | 449 kts | 270° |
| 2026-05-07 12:27 | 24.13676 | 103.95542 | 36266 ft | 449 kts | 270° |
| 2026-05-07 12:28 | 24.13725 | 103.88707 | 36263 ft | 449 kts | 270° |
| 2026-05-07 12:28 | 24.13763 | 103.81877 | 36276 ft | 449 kts | 270° |
| 2026-05-07 12:29 | 24.13788 | 103.75044 | 36278 ft | 449 kts | 270° |
| 2026-05-07 12:29 | 24.13817 | 103.68206 | 36286 ft | 449 kts | 270° |
| 2026-05-07 12:30 | 24.13851 | 103.61370 | 36287 ft | 449 kts | 270° |
| 2026-05-07 12:30 | 24.13883 | 103.54551 | 36295 ft | 448 kts | 270° |
| 2026-05-07 12:31 | 24.13911 | 103.47730 | 36293 ft | 448 kts | 270° |
| 2026-05-07 12:31 | 24.13937 | 103.40952 | 36299 ft | 448 kts | 270° |
| 2026-05-07 12:32 | 24.13959 | 103.34144 | 36300 ft | 448 kts | 270° |
| 2026-05-07 12:32 | 24.13978 | 103.27329 | 36301 ft | 447 kts | 270° |
| 2026-05-07 12:33 | 24.14002 | 103.17096 | 36324 ft | 448 kts | 270° |
| 2026-05-07 12:33 | 24.14014 | 103.10264 | 36307 ft | 448 kts | 270° |
| 2026-05-07 12:34 | 24.14023 | 103.03443 | 36320 ft | 448 kts | 270° |
| 2026-05-07 12:34 | 24.14029 | 102.96606 | 36324 ft | 450 kts | 270° |
| 2026-05-07 12:35 | 24.14025 | 102.89749 | 36316 ft | 451 kts | 269° |
| 2026-05-07 12:35 | 24.14008 | 102.82896 | 36318 ft | 451 kts | 269° |
| 2026-05-07 12:36 | 24.14000 | 102.76033 | 36320 ft | 451 kts | 269° |
| 2026-05-07 12:36 | 24.13992 | 102.69154 | 36320 ft | 453 kts | 269° |
| 2026-05-07 12:37 | 24.13980 | 102.62265 | 36319 ft | 453 kts | 269° |
| 2026-05-07 12:37 | 24.13967 | 102.55369 | 36318 ft | 453 kts | 269° |
| 2026-05-07 12:38 | 24.13951 | 102.48456 | 36325 ft | 454 kts | 269° |
| 2026-05-07 12:38 | 24.13931 | 102.41533 | 36314 ft | 455 kts | 269° |
| 2026-05-07 12:39 | 24.13909 | 102.34594 | 36316 ft | 456 kts | 269° |
| 2026-05-07 12:39 | 24.13886 | 102.27646 | 36328 ft | 457 kts | 269° |
| 2026-05-07 12:40 | 24.13856 | 102.20737 | 36325 ft | 457 kts | 269° |
| 2026-05-07 12:40 | 24.13823 | 102.13782 | 36312 ft | 458 kts | 269° |
| 2026-05-07 12:41 | 24.13790 | 102.06808 | 36299 ft | 458 kts | 269° |
| 2026-05-07 12:41 | 24.13748 | 101.99850 | 36296 ft | 458 kts | 269° |
| 2026-05-07 12:42 | 24.13693 | 101.92897 | 36292 ft | 458 kts | 269° |
| 2026-05-07 12:42 | 24.13641 | 101.85923 | 36295 ft | 458 kts | 269° |
| 2026-05-07 12:43 | 24.13590 | 101.78951 | 36286 ft | 458 kts | 269° |
| 2026-05-07 12:43 | 24.13538 | 101.71991 | 36283 ft | 457 kts | 269° |
| 2026-05-07 12:44 | 24.13485 | 101.65083 | 36280 ft | 457 kts | 269° |
| 2026-05-07 12:44 | 24.13427 | 101.58145 | 36276 ft | 456 kts | 269° |
| 2026-05-07 12:45 | 24.13368 | 101.51209 | 36264 ft | 455 kts | 269° |
| 2026-05-07 12:45 | 24.13303 | 101.44290 | 36263 ft | 455 kts | 268° |
| 2026-05-07 12:46 | 24.13235 | 101.37374 | 36261 ft | 454 kts | 269° |
| 2026-05-07 12:46 | 24.13167 | 101.30473 | 36255 ft | 453 kts | 269° |
| 2026-05-07 12:47 | 24.13097 | 101.23586 | 36252 ft | 452 kts | 268° |
| 2026-05-07 12:47 | 24.13021 | 101.16712 | 36243 ft | 450 kts | 268° |
| 2026-05-07 12:48 | 24.12940 | 101.09855 | 36239 ft | 451 kts | 268° |
| 2026-05-07 12:48 | 24.12842 | 101.03011 | 36232 ft | 449 kts | 268° |
| 2026-05-07 12:49 | 24.12751 | 100.96186 | 36227 ft | 449 kts | 268° |
| 2026-05-07 12:49 | 24.12662 | 100.89367 | 36219 ft | 448 kts | 268° |
| 2026-05-07 12:50 | 24.12571 | 100.82548 | 36216 ft | 447 kts | 268° |
| 2026-05-07 12:50 | 24.12477 | 100.75749 | 36211 ft | 446 kts | 268° |
| 2026-05-07 12:51 | 24.12381 | 100.68957 | 36210 ft | 447 kts | 268° |
| 2026-05-07 12:51 | 24.12285 | 100.62169 | 36198 ft | 445 kts | 268° |
| 2026-05-07 12:52 | 24.11612 | 100.55498 | 36196 ft | 445 kts | 255° |
| 2026-05-07 12:52 | 24.09084 | 100.49333 | 36193 ft | 446 kts | 242° |
| 2026-05-07 12:53 | 24.06424 | 100.44441 | 36183 ft | 447 kts | 241° |
| 2026-05-07 12:53 | 24.03281 | 100.38579 | 36181 ft | 447 kts | 242° |
| 2026-05-07 12:54 | 24.00237 | 100.32674 | 36172 ft | 445 kts | 243° |
| 2026-05-07 12:54 | 23.97232 | 100.26763 | 36164 ft | 446 kts | 243° |
| 2026-05-07 12:55 | 23.94233 | 100.20855 | 36164 ft | 447 kts | 243° |
| 2026-05-07 12:55 | 23.91212 | 100.14921 | 36154 ft | 446 kts | 243° |
| 2026-05-07 12:56 | 23.88202 | 100.09014 | 36146 ft | 446 kts | 243° |
| 2026-05-07 12:56 | 23.85182 | 100.03092 | 36150 ft | 446 kts | 243° |
| 2026-05-07 12:57 | 23.82164 | 99.97184 | 36131 ft | 446 kts | 243° |
| 2026-05-07 12:57 | 23.79136 | 99.91269 | 36136 ft | 447 kts | 243° |
| 2026-05-07 12:58 | 23.76103 | 99.85346 | 36125 ft | 446 kts | 242° |
| 2026-05-07 12:58 | 23.73074 | 99.79439 | 36117 ft | 448 kts | 242° |
| 2026-05-07 12:59 | 23.70032 | 99.73523 | 36109 ft | 446 kts | 242° |
| 2026-05-07 12:59 | 23.66979 | 99.67618 | 36107 ft | 448 kts | 243° |
| 2026-05-07 13:00 | 23.63928 | 99.61704 | 36095 ft | 447 kts | 242° |
| 2026-05-07 13:00 | 23.60884 | 99.55802 | 36099 ft | 446 kts | 242° |
| 2026-05-07 13:01 | 23.57841 | 99.49901 | 36091 ft | 446 kts | 242° |
| 2026-05-07 13:01 | 23.54794 | 99.44003 | 36088 ft | 447 kts | 243° |
| 2026-05-07 13:02 | 23.51890 | 99.38029 | 36081 ft | 445 kts | 249° |
| 2026-05-07 13:02 | 23.49776 | 99.31700 | 36081 ft | 445 kts | 253° |
| 2026-05-07 13:03 | 23.47876 | 99.25287 | 36072 ft | 445 kts | 253° |
| 2026-05-07 13:03 | 23.45946 | 99.18894 | 36066 ft | 444 kts | 252° |
| 2026-05-07 13:04 | 23.43983 | 99.12517 | 36065 ft | 444 kts | 252° |
| 2026-05-07 13:04 | 23.42008 | 99.06150 | 36071 ft | 444 kts | 252° |
| 2026-05-07 13:05 | 23.40025 | 98.99777 | 36063 ft | 444 kts | 252° |
| 2026-05-07 13:05 | 23.38040 | 98.93406 | 36067 ft | 444 kts | 252° |
| 2026-05-07 13:06 | 23.35980 | 98.87082 | 36059 ft | 444 kts | 251° |
| 2026-05-07 13:06 | 23.33869 | 98.80769 | 36047 ft | 444 kts | 251° |
| 2026-05-07 13:07 | 23.31777 | 98.74506 | 36034 ft | 443 kts | 251° |
| 2026-05-07 13:07 | 23.29676 | 98.68217 | 36029 ft | 442 kts | 251° |
| 2026-05-07 13:08 | 23.27568 | 98.61926 | 36025 ft | 443 kts | 251° |
| 2026-05-07 13:08 | 23.25463 | 98.55640 | 36021 ft | 443 kts | 251° |
| 2026-05-07 13:09 | 23.23362 | 98.49361 | 36016 ft | 442 kts | 251° |
| 2026-05-07 13:09 | 23.21254 | 98.43081 | 36017 ft | 442 kts | 251° |
| 2026-05-07 13:10 | 23.19146 | 98.36810 | 36003 ft | 442 kts | 251° |
| 2026-05-07 13:10 | 23.17032 | 98.30531 | 36002 ft | 443 kts | 251° |
| 2026-05-07 13:11 | 23.14916 | 98.24252 | 36002 ft | 441 kts | 251° |
| 2026-05-07 13:11 | 23.12803 | 98.17991 | 36002 ft | 442 kts | 251° |
| 2026-05-07 13:12 | 23.10686 | 98.11737 | 35990 ft | 442 kts | 251° |
| 2026-05-07 13:12 | 23.08556 | 98.05467 | 35993 ft | 443 kts | 251° |
| 2026-05-07 13:13 | 23.06410 | 97.99187 | 35985 ft | 443 kts | 251° |
| 2026-05-07 13:13 | 23.04274 | 97.92920 | 35981 ft | 441 kts | 251° |
| 2026-05-07 13:14 | 23.02163 | 97.86722 | 35978 ft | 441 kts | 251° |
| 2026-05-07 13:14 | 23.00043 | 97.80490 | 35971 ft | 441 kts | 251° |
| 2026-05-07 13:15 | 22.98537 | 97.74076 | 35957 ft | 439 kts | 266° |
| 2026-05-07 13:15 | 22.98946 | 97.67476 | 35952 ft | 441 kts | 277° |
| 2026-05-07 13:16 | 22.99957 | 97.60910 | 35946 ft | 441 kts | 278° |
| 2026-05-07 13:16 | 23.00881 | 97.54323 | 35941 ft | 441 kts | 277° |
| 2026-05-07 13:17 | 23.01708 | 97.47732 | 35942 ft | 441 kts | 276° |
| 2026-05-07 13:17 | 23.02501 | 97.41135 | 35938 ft | 440 kts | 276° |
| 2026-05-07 13:18 | 23.03289 | 97.34545 | 35942 ft | 441 kts | 276° |
| 2026-05-07 13:18 | 23.04079 | 97.27944 | 35946 ft | 440 kts | 276° |
| 2026-05-07 13:19 | 23.04863 | 97.21354 | 35937 ft | 440 kts | 276° |
| 2026-05-07 13:19 | 23.05643 | 97.14805 | 35931 ft | 440 kts | 276° |
| 2026-05-07 13:20 | 23.06424 | 97.08208 | 35938 ft | 441 kts | 276° |
| 2026-05-07 13:20 | 23.07203 | 97.01604 | 35934 ft | 441 kts | 276° |
| 2026-05-07 13:21 | 23.07977 | 96.95005 | 35930 ft | 440 kts | 275° |
| 2026-05-07 13:21 | 23.08750 | 96.88419 | 35930 ft | 439 kts | 275° |
| 2026-05-07 13:22 | 23.09516 | 96.81821 | 35931 ft | 440 kts | 275° |
| 2026-05-07 13:22 | 23.10265 | 96.75233 | 35935 ft | 440 kts | 275° |
| 2026-05-07 13:23 | 23.11021 | 96.68638 | 35932 ft | 439 kts | 275° |
| 2026-05-07 13:23 | 23.11780 | 96.62060 | 35933 ft | 439 kts | 275° |
| 2026-05-07 13:24 | 23.12539 | 96.55483 | 35932 ft | 439 kts | 275° |
| 2026-05-07 13:24 | 23.13290 | 96.48902 | 35933 ft | 439 kts | 275° |
| 2026-05-07 13:25 | 23.14040 | 96.42327 | 35931 ft | 438 kts | 275° |
| 2026-05-07 13:25 | 23.14778 | 96.35822 | 35931 ft | 438 kts | 275° |
| 2026-05-07 13:26 | 23.15523 | 96.29253 | 35934 ft | 438 kts | 275° |
| 2026-05-07 13:26 | 23.16265 | 96.22676 | 35931 ft | 438 kts | 275° |
| 2026-05-07 13:27 | 23.17001 | 96.16143 | 35933 ft | 437 kts | 275° |
| 2026-05-07 13:27 | 23.17737 | 96.09572 | 35926 ft | 438 kts | 275° |
| 2026-05-07 13:28 | 23.18467 | 96.03019 | 35922 ft | 437 kts | 275° |
| 2026-05-07 13:28 | 23.19196 | 95.96458 | 35921 ft | 437 kts | 275° |
| 2026-05-07 13:29 | 23.19912 | 95.89897 | 35934 ft | 436 kts | 274° |
| 2026-05-07 13:29 | 23.20614 | 95.83401 | 35933 ft | 436 kts | 274° |
| 2026-05-07 13:30 | 23.21326 | 95.76858 | 35933 ft | 436 kts | 275° |
| 2026-05-07 13:30 | 23.22040 | 95.70302 | 35934 ft | 436 kts | 274° |
| 2026-05-07 13:31 | 23.22755 | 95.63761 | 35940 ft | 436 kts | 274° |
| 2026-05-07 13:31 | 23.23467 | 95.57213 | 35942 ft | 436 kts | 275° |
| 2026-05-07 13:32 | 23.24174 | 95.50679 | 35941 ft | 436 kts | 274° |
| 2026-05-07 13:32 | 23.24872 | 95.44191 | 35946 ft | 435 kts | 274° |
| 2026-05-07 13:33 | 23.25575 | 95.37645 | 35950 ft | 436 kts | 274° |
| 2026-05-07 13:33 | 23.26275 | 95.31100 | 35951 ft | 436 kts | 274° |
| 2026-05-07 13:34 | 23.27316 | 95.21300 | 35957 ft | 436 kts | 274° |
| 2026-05-07 13:35 | 23.28010 | 95.14745 | 35960 ft | 436 kts | 274° |
| 2026-05-07 13:35 | 23.28701 | 95.08196 | 35960 ft | 436 kts | 274° |
| 2026-05-07 13:36 | 23.29381 | 95.01644 | 35967 ft | 436 kts | 274° |
| 2026-05-07 13:36 | 23.30048 | 94.95093 | 35968 ft | 436 kts | 274° |
| 2026-05-07 13:37 | 23.30724 | 94.88545 | 35968 ft | 435 kts | 274° |
| 2026-05-07 13:37 | 23.31398 | 94.82004 | 35968 ft | 435 kts | 274° |
| 2026-05-07 13:38 | 23.32074 | 94.75455 | 35977 ft | 435 kts | 274° |
| 2026-05-07 13:38 | 23.32748 | 94.68909 | 35978 ft | 435 kts | 274° |
| 2026-05-07 13:39 | 23.33420 | 94.62373 | 35976 ft | 435 kts | 274° |
| 2026-05-07 13:39 | 23.34088 | 94.55839 | 35981 ft | 434 kts | 274° |
| 2026-05-07 13:40 | 23.34748 | 94.49315 | 35986 ft | 435 kts | 274° |
| 2026-05-07 13:40 | 23.35406 | 94.42823 | 35989 ft | 434 kts | 273° |
| 2026-05-07 13:41 | 23.35977 | 94.37118 | 35996 ft | 434 kts | 273° |
| 2026-05-07 13:41 | 23.36329 | 94.33610 | 35996 ft | 434 kts | 273° |
| 2026-05-07 13:42 | 23.36776 | 94.29082 | 35994 ft | 434 kts | 273° |
| 2026-05-07 13:42 | 23.37252 | 94.24340 | 36003 ft | 434 kts | 273° |
| 2026-05-07 13:43 | 23.37752 | 94.19348 | 35997 ft | 434 kts | 273° |
| 2026-05-07 13:43 | 23.38402 | 94.12748 | 36001 ft | 434 kts | 273° |
| 2026-05-07 13:44 | 23.39031 | 94.06218 | 35996 ft | 434 kts | 273° |
| 2026-05-07 13:44 | 23.39659 | 93.99739 | 35995 ft | 434 kts | 273° |
| 2026-05-07 13:45 | 23.40296 | 93.93209 | 35998 ft | 433 kts | 273° |
| 2026-05-07 13:45 | 23.40932 | 93.86692 | 35985 ft | 433 kts | 273° |
| 2026-05-07 13:46 | 23.41563 | 93.80169 | 36007 ft | 435 kts | 273° |
| 2026-05-07 13:46 | 23.42194 | 93.73634 | 36004 ft | 434 kts | 273° |
| 2026-05-07 13:47 | 23.42822 | 93.67108 | 36004 ft | 433 kts | 273° |
| 2026-05-07 13:47 | 23.43446 | 93.60571 | 36007 ft | 434 kts | 273° |
| 2026-05-07 13:48 | 23.44070 | 93.54038 | 36008 ft | 434 kts | 273° |
| 2026-05-07 13:48 | 23.44875 | 93.47522 | 36003 ft | 435 kts | 277° |
| 2026-05-07 13:49 | 23.46068 | 93.41057 | 36010 ft | 436 kts | 278° |
| 2026-05-07 13:49 | 23.47323 | 93.34600 | 36006 ft | 436 kts | 278° |
| 2026-05-07 13:50 | 23.48558 | 93.28139 | 36004 ft | 436 kts | 278° |
| 2026-05-07 13:50 | 23.49778 | 93.21660 | 36008 ft | 437 kts | 278° |
| 2026-05-07 13:51 | 23.50988 | 93.15187 | 35999 ft | 437 kts | 278° |
| 2026-05-07 13:51 | 23.52190 | 93.08769 | 36005 ft | 436 kts | 278° |
| 2026-05-07 13:52 | 23.53399 | 93.02311 | 36006 ft | 434 kts | 277° |
| 2026-05-07 13:52 | 23.54598 | 92.95883 | 35928 ft | 430 kts | 277° |
| 2026-05-07 13:53 | 23.55779 | 92.89528 | 35906 ft | 427 kts | 277° |
| 2026-05-07 13:53 | 23.56952 | 92.83199 | 35909 ft | 426 kts | 277° |
| 2026-05-07 13:54 | 23.58120 | 92.76864 | 35903 ft | 427 kts | 277° |
| 2026-05-07 13:54 | 23.59291 | 92.70521 | 35906 ft | 427 kts | 277° |
| 2026-05-07 13:55 | 23.60458 | 92.64184 | 35908 ft | 426 kts | 277° |
| 2026-05-07 13:55 | 23.61706 | 92.57858 | 35910 ft | 427 kts | 278° |
| 2026-05-07 13:56 | 23.63020 | 92.51532 | 35907 ft | 428 kts | 278° |
| 2026-05-07 13:56 | 23.64336 | 92.45233 | 35906 ft | 425 kts | 278° |
| 2026-05-07 13:57 | 23.65640 | 92.38975 | 35906 ft | 424 kts | 278° |
| 2026-05-07 13:57 | 23.66940 | 92.32698 | 35911 ft | 425 kts | 278° |
| 2026-05-07 13:58 | 23.68238 | 92.26411 | 35896 ft | 424 kts | 278° |
| 2026-05-07 13:58 | 23.69530 | 92.20143 | 35899 ft | 423 kts | 278° |
| 2026-05-07 13:59 | 23.70821 | 92.13871 | 35895 ft | 424 kts | 278° |
| 2026-05-07 13:59 | 23.72112 | 92.07588 | 35883 ft | 425 kts | 278° |
| 2026-05-07 14:00 | 23.73402 | 92.01300 | 35881 ft | 424 kts | 278° |
| 2026-05-07 14:00 | 23.74687 | 91.95015 | 35859 ft | 424 kts | 278° |
| 2026-05-07 14:01 | 23.75973 | 91.88727 | 35857 ft | 424 kts | 278° |
| 2026-05-07 14:01 | 23.77253 | 91.82447 | 35856 ft | 423 kts | 278° |
| 2026-05-07 14:02 | 23.78519 | 91.76212 | 35856 ft | 423 kts | 278° |
| 2026-05-07 14:02 | 23.79776 | 91.69936 | 35856 ft | 423 kts | 278° |
| 2026-05-07 14:03 | 23.81036 | 91.63652 | 35837 ft | 424 kts | 278° |
| 2026-05-07 14:03 | 23.82303 | 91.57364 | 35839 ft | 424 kts | 278° |
| 2026-05-07 14:04 | 23.83567 | 91.51076 | 35831 ft | 424 kts | 278° |
| 2026-05-07 14:04 | 23.84830 | 91.44796 | 35833 ft | 424 kts | 278° |
| 2026-05-07 14:05 | 23.86095 | 91.38498 | 35833 ft | 424 kts | 278° |
| 2026-05-07 14:05 | 23.87354 | 91.32206 | 35829 ft | 424 kts | 277° |
| 2026-05-07 14:06 | 23.88608 | 91.25918 | 35833 ft | 423 kts | 278° |
| 2026-05-07 14:06 | 23.89921 | 91.19640 | 35831 ft | 424 kts | 278° |
| 2026-05-07 14:07 | 23.91292 | 91.13370 | 35834 ft | 425 kts | 278° |
| 2026-05-07 14:07 | 23.92671 | 91.07089 | 35833 ft | 425 kts | 278° |
| 2026-05-07 14:08 | 23.94042 | 91.00815 | 35844 ft | 423 kts | 278° |
| 2026-05-07 14:08 | 23.95406 | 90.94561 | 35861 ft | 423 kts | 278° |
| 2026-05-07 14:09 | 23.96757 | 90.88338 | 35862 ft | 423 kts | 278° |
| 2026-05-07 14:09 | 23.98125 | 90.82036 | 35860 ft | 423 kts | 278° |
| 2026-05-07 14:10 | 23.99470 | 90.75821 | 35866 ft | 423 kts | 278° |
| 2026-05-07 14:10 | 24.00820 | 90.69576 | 35861 ft | 421 kts | 278° |
| 2026-05-07 14:11 | 24.02160 | 90.63360 | 35862 ft | 419 kts | 278° |
| 2026-05-07 14:11 | 24.03494 | 90.57160 | 35852 ft | 419 kts | 277° |
| 2026-05-07 14:12 | 24.04821 | 90.50981 | 35852 ft | 419 kts | 278° |
| 2026-05-07 14:12 | 24.06150 | 90.44777 | 35858 ft | 419 kts | 277° |
| 2026-05-07 14:13 | 24.07462 | 90.38568 | 35856 ft | 419 kts | 277° |
| 2026-05-07 14:13 | 24.08760 | 90.32357 | 35861 ft | 419 kts | 277° |
| 2026-05-07 14:14 | 24.10060 | 90.26148 | 35858 ft | 418 kts | 277° |
| 2026-05-07 14:14 | 24.11367 | 90.19938 | 35865 ft | 419 kts | 277° |
| 2026-05-07 14:15 | 24.12668 | 90.13728 | 35863 ft | 419 kts | 277° |
| 2026-05-07 14:15 | 24.13969 | 90.07512 | 35863 ft | 418 kts | 277° |
| 2026-05-07 14:16 | 24.15265 | 90.01304 | 35866 ft | 418 kts | 277° |
| 2026-05-07 14:16 | 24.16558 | 89.95091 | 35867 ft | 419 kts | 277° |
| 2026-05-07 14:17 | 24.17841 | 89.88917 | 35862 ft | 418 kts | 277° |
| 2026-05-07 14:17 | 24.19127 | 89.82714 | 35853 ft | 418 kts | 277° |
| 2026-05-07 14:18 | 24.20414 | 89.76497 | 35853 ft | 418 kts | 277° |
| 2026-05-07 14:18 | 24.21698 | 89.70288 | 35857 ft | 418 kts | 277° |
| 2026-05-07 14:19 | 24.22976 | 89.64080 | 35866 ft | 418 kts | 277° |
| 2026-05-07 14:19 | 24.24253 | 89.57876 | 35858 ft | 417 kts | 277° |
| 2026-05-07 14:20 | 24.25522 | 89.51671 | 35857 ft | 417 kts | 277° |
| 2026-05-07 14:20 | 24.26775 | 89.45464 | 35863 ft | 417 kts | 277° |
| 2026-05-07 14:21 | 24.28034 | 89.39256 | 35867 ft | 417 kts | 277° |
| 2026-05-07 14:21 | 24.29297 | 89.33058 | 35859 ft | 416 kts | 277° |
| 2026-05-07 14:22 | 24.30557 | 89.26868 | 35875 ft | 416 kts | 277° |
| 2026-05-07 14:22 | 24.31813 | 89.20679 | 35859 ft | 416 kts | 277° |
| 2026-05-07 14:23 | 24.33067 | 89.14481 | 35871 ft | 417 kts | 277° |
| 2026-05-07 14:23 | 24.34320 | 89.08277 | 35880 ft | 416 kts | 277° |
| 2026-05-07 14:24 | 24.35570 | 89.02083 | 35879 ft | 416 kts | 276° |
| 2026-05-07 14:24 | 24.36806 | 88.95935 | 35880 ft | 416 kts | 276° |
| 2026-05-07 14:25 | 24.38048 | 88.89752 | 35881 ft | 416 kts | 276° |
| 2026-05-07 14:25 | 24.39289 | 88.83554 | 35868 ft | 416 kts | 276° |
| 2026-05-07 14:26 | 24.40529 | 88.77353 | 35856 ft | 416 kts | 276° |
| 2026-05-07 14:26 | 24.41763 | 88.71162 | 35845 ft | 415 kts | 276° |
| 2026-05-07 14:27 | 24.42991 | 88.65010 | 35855 ft | 415 kts | 277° |
| 2026-05-07 14:27 | 24.44927 | 88.58971 | 35852 ft | 424 kts | 287° |
| 2026-05-07 14:28 | 24.47427 | 88.53075 | 35844 ft | 427 kts | 288° |
| 2026-05-07 14:28 | 24.49959 | 88.47189 | 35834 ft | 426 kts | 288° |
| 2026-05-07 14:29 | 24.52449 | 88.41292 | 35838 ft | 426 kts | 287° |
| 2026-05-07 14:29 | 24.54920 | 88.35385 | 35852 ft | 426 kts | 287° |
| 2026-05-07 14:30 | 24.56970 | 88.30465 | 35849 ft | 426 kts | 287° |
| 2026-05-07 14:30 | 24.59432 | 88.24553 | 35861 ft | 425 kts | 287° |
| 2026-05-07 14:31 | 24.62293 | 88.17681 | 35864 ft | 425 kts | 287° |
| 2026-05-07 14:31 | 24.64350 | 88.12726 | 35860 ft | 425 kts | 287° |
| 2026-05-07 14:32 | 24.66802 | 88.06805 | 35856 ft | 426 kts | 287° |
| 2026-05-07 14:32 | 24.69241 | 88.00892 | 35864 ft | 425 kts | 287° |
| 2026-05-07 14:33 | 24.71671 | 87.94968 | 35868 ft | 425 kts | 287° |
| 2026-05-07 14:33 | 24.74107 | 87.89038 | 35881 ft | 426 kts | 287° |
| 2026-05-07 14:34 | 24.76545 | 87.83106 | 35881 ft | 425 kts | 287° |
| 2026-05-07 14:34 | 24.79004 | 87.77183 | 35882 ft | 425 kts | 287° |
| 2026-05-07 14:35 | 24.81484 | 87.71320 | 35881 ft | 425 kts | 287° |
| 2026-05-07 14:35 | 24.83988 | 87.65424 | 35881 ft | 426 kts | 288° |
| 2026-05-07 14:36 | 24.86486 | 87.59522 | 35882 ft | 425 kts | 287° |
| 2026-05-07 14:36 | 24.88977 | 87.53611 | 35879 ft | 425 kts | 287° |
| 2026-05-07 14:37 | 24.91467 | 87.47701 | 35871 ft | 425 kts | 287° |
| 2026-05-07 14:37 | 24.95200 | 87.38835 | 35884 ft | 425 kts | 287° |
| 2026-05-07 14:38 | 24.97686 | 87.32918 | 35880 ft | 425 kts | 287° |
| 2026-05-07 14:38 | 25.00169 | 87.27003 | 35881 ft | 425 kts | 287° |
| 2026-05-07 14:39 | 25.02650 | 87.21083 | 35878 ft | 425 kts | 287° |
| 2026-05-07 14:39 | 25.05120 | 87.15180 | 35878 ft | 425 kts | 287° |
| 2026-05-07 14:40 | 25.07593 | 87.09255 | 35863 ft | 425 kts | 287° |
| 2026-05-07 14:40 | 25.10068 | 87.03332 | 35860 ft | 425 kts | 287° |
| 2026-05-07 14:41 | 25.12540 | 86.97405 | 35875 ft | 425 kts | 287° |
| 2026-05-07 14:41 | 25.14995 | 86.91462 | 35878 ft | 425 kts | 287° |
| 2026-05-07 14:42 | 25.17426 | 86.85579 | 35869 ft | 425 kts | 287° |
| 2026-05-07 14:42 | 25.19883 | 86.79644 | 35866 ft | 425 kts | 287° |
| 2026-05-07 14:43 | 25.22346 | 86.73707 | 35863 ft | 425 kts | 287° |
| 2026-05-07 14:43 | 25.24807 | 86.67766 | 35865 ft | 425 kts | 287° |
| 2026-05-07 14:44 | 25.27266 | 86.61822 | 35863 ft | 425 kts | 287° |
| 2026-05-07 14:44 | 25.29720 | 86.55878 | 35870 ft | 426 kts | 287° |
| 2026-05-07 14:45 | 25.32173 | 86.49926 | 35879 ft | 425 kts | 287° |
| 2026-05-07 14:45 | 25.34625 | 86.43966 | 35865 ft | 425 kts | 287° |
| 2026-05-07 14:46 | 25.36366 | 86.37829 | 35872 ft | 415 kts | 276° |
| 2026-05-07 14:46 | 25.37459 | 86.31566 | 35871 ft | 415 kts | 275° |
| 2026-05-07 14:47 | 25.38520 | 86.25290 | 35867 ft | 415 kts | 275° |
| 2026-05-07 14:47 | 25.39625 | 86.19017 | 35876 ft | 415 kts | 275° |
| 2026-05-07 14:48 | 25.40748 | 86.12751 | 35872 ft | 416 kts | 275° |
| 2026-05-07 14:48 | 25.41873 | 86.06480 | 35870 ft | 416 kts | 275° |
| 2026-05-07 14:49 | 25.42997 | 86.00211 | 35869 ft | 415 kts | 275° |
| 2026-05-07 14:49 | 25.44108 | 85.93983 | 35876 ft | 415 kts | 276° |
| 2026-05-07 14:50 | 25.45223 | 85.87721 | 35873 ft | 415 kts | 275° |
| 2026-05-07 14:50 | 25.46335 | 85.81462 | 35868 ft | 415 kts | 275° |
| 2026-05-07 14:51 | 25.47442 | 85.75201 | 35876 ft | 415 kts | 275° |
| 2026-05-07 14:51 | 25.48549 | 85.68935 | 35857 ft | 415 kts | 275° |
| 2026-05-07 14:52 | 25.49654 | 85.62672 | 35867 ft | 414 kts | 276° |
| 2026-05-07 14:52 | 25.50754 | 85.56417 | 35863 ft | 414 kts | 276° |
| 2026-05-07 14:53 | 25.51848 | 85.50148 | 35852 ft | 415 kts | 275° |
| 2026-05-07 14:53 | 25.52926 | 85.43875 | 35866 ft | 415 kts | 275° |
| 2026-05-07 14:54 | 25.54012 | 85.37604 | 35863 ft | 414 kts | 276° |
| 2026-05-07 14:54 | 25.55100 | 85.31338 | 35859 ft | 415 kts | 276° |
| 2026-05-07 14:55 | 25.56186 | 85.25066 | 35862 ft | 415 kts | 276° |
| 2026-05-07 14:55 | 25.57273 | 85.18795 | 35852 ft | 414 kts | 276° |
| 2026-05-07 14:56 | 25.58402 | 85.12537 | 35859 ft | 416 kts | 279° |
| 2026-05-07 14:56 | 25.60047 | 85.06368 | 35859 ft | 419 kts | 282° |
| 2026-05-07 14:57 | 25.61875 | 85.00254 | 35863 ft | 419 kts | 283° |
| 2026-05-07 14:57 | 25.63696 | 84.94129 | 35856 ft | 419 kts | 282° |
| 2026-05-07 14:58 | 25.65500 | 84.87990 | 35858 ft | 419 kts | 282° |
| 2026-05-07 14:58 | 25.67279 | 84.81892 | 35862 ft | 418 kts | 283° |
| 2026-05-07 14:59 | 25.69067 | 84.75754 | 35856 ft | 418 kts | 283° |
| 2026-05-07 14:59 | 25.70852 | 84.69614 | 35855 ft | 418 kts | 283° |
| 2026-05-07 15:00 | 25.72630 | 84.63483 | 35864 ft | 417 kts | 283° |
| 2026-05-07 15:00 | 25.74403 | 84.57357 | 35859 ft | 417 kts | 283° |
| 2026-05-07 15:01 | 25.76177 | 84.51224 | 35854 ft | 418 kts | 283° |
| 2026-05-07 15:01 | 25.77947 | 84.45084 | 35862 ft | 418 kts | 283° |
| 2026-05-07 15:02 | 25.79721 | 84.38933 | 35854 ft | 418 kts | 283° |
| 2026-05-07 15:02 | 25.81491 | 84.32787 | 35865 ft | 418 kts | 283° |
| 2026-05-07 15:03 | 25.83257 | 84.26634 | 35859 ft | 418 kts | 283° |
| 2026-05-07 15:03 | 25.85008 | 84.20486 | 35865 ft | 417 kts | 283° |
| 2026-05-07 15:04 | 25.86750 | 84.14341 | 35857 ft | 418 kts | 283° |
| 2026-05-07 15:04 | 25.88502 | 84.08182 | 35862 ft | 419 kts | 283° |
| 2026-05-07 15:05 | 25.90259 | 84.02019 | 35853 ft | 418 kts | 283° |
| 2026-05-07 15:05 | 25.92011 | 83.95859 | 35859 ft | 418 kts | 283° |
| 2026-05-07 15:06 | 25.93763 | 83.89698 | 35847 ft | 418 kts | 283° |
| 2026-05-07 15:06 | 25.95512 | 83.83532 | 35844 ft | 418 kts | 283° |
| 2026-05-07 15:07 | 25.97256 | 83.77369 | 35837 ft | 418 kts | 283° |
| 2026-05-07 15:07 | 25.98988 | 83.71240 | 35841 ft | 418 kts | 283° |
| 2026-05-07 15:08 | 26.00726 | 83.65075 | 35838 ft | 418 kts | 283° |
| 2026-05-07 15:08 | 26.02466 | 83.58888 | 35851 ft | 420 kts | 283° |
| 2026-05-07 15:09 | 26.04203 | 83.52679 | 35855 ft | 421 kts | 283° |
| 2026-05-07 15:09 | 26.05949 | 83.46448 | 35851 ft | 422 kts | 283° |
| 2026-05-07 15:10 | 26.07698 | 83.40218 | 35845 ft | 423 kts | 284° |
| 2026-05-07 15:10 | 26.09451 | 83.33967 | 35850 ft | 423 kts | 283° |
| 2026-05-07 15:11 | 26.11201 | 83.27710 | 35854 ft | 424 kts | 284° |
| 2026-05-07 15:11 | 26.12953 | 83.21445 | 35843 ft | 424 kts | 284° |
| 2026-05-07 15:12 | 26.14698 | 83.15192 | 35850 ft | 425 kts | 284° |
| 2026-05-07 15:12 | 26.16450 | 83.08897 | 35851 ft | 426 kts | 284° |
| 2026-05-07 15:13 | 26.18204 | 83.02593 | 35857 ft | 426 kts | 284° |
| 2026-05-07 15:13 | 26.19954 | 82.96282 | 35850 ft | 427 kts | 284° |
| 2026-05-07 15:14 | 26.21701 | 82.89969 | 35853 ft | 427 kts | 284° |
| 2026-05-07 15:14 | 26.23450 | 82.83646 | 35851 ft | 427 kts | 284° |
| 2026-05-07 15:15 | 26.25197 | 82.77321 | 35847 ft | 427 kts | 284° |
| 2026-05-07 15:15 | 26.26940 | 82.70992 | 35845 ft | 427 kts | 284° |
| 2026-05-07 15:16 | 26.28651 | 82.64693 | 35841 ft | 428 kts | 284° |
| 2026-05-07 15:16 | 26.30379 | 82.58343 | 35844 ft | 428 kts | 284° |
| 2026-05-07 15:17 | 26.32114 | 82.51991 | 35839 ft | 428 kts | 284° |
| 2026-05-07 15:17 | 26.33849 | 82.45645 | 35840 ft | 428 kts | 284° |
| 2026-05-07 15:18 | 26.35581 | 82.39293 | 35839 ft | 429 kts | 284° |
| 2026-05-07 15:18 | 26.37311 | 82.32936 | 35834 ft | 428 kts | 284° |
| 2026-05-07 15:19 | 26.38743 | 82.27663 | 35831 ft | 427 kts | 284° |
| 2026-05-07 15:19 | 26.40464 | 82.21320 | 35834 ft | 427 kts | 284° |
| 2026-05-07 15:20 | 26.42184 | 82.14970 | 35833 ft | 427 kts | 284° |
| 2026-05-07 15:20 | 26.43899 | 82.08622 | 35834 ft | 428 kts | 284° |
| 2026-05-07 15:21 | 26.45609 | 82.02266 | 35833 ft | 428 kts | 284° |
| 2026-05-07 15:21 | 26.47323 | 81.95898 | 35831 ft | 428 kts | 284° |
| 2026-05-07 15:22 | 26.49032 | 81.89541 | 35831 ft | 428 kts | 284° |
| 2026-05-07 15:22 | 26.50740 | 81.83170 | 35827 ft | 428 kts | 284° |
| 2026-05-07 15:23 | 26.52431 | 81.76794 | 35831 ft | 428 kts | 284° |
| 2026-05-07 15:23 | 26.54121 | 81.70412 | 35834 ft | 429 kts | 284° |
| 2026-05-07 15:24 | 26.55807 | 81.64065 | 35838 ft | 429 kts | 284° |
| 2026-05-07 15:24 | 26.57506 | 81.57672 | 35841 ft | 429 kts | 284° |
| 2026-05-07 15:25 | 26.59204 | 81.51279 | 35841 ft | 429 kts | 284° |
| 2026-05-07 15:25 | 26.60901 | 81.44873 | 35843 ft | 430 kts | 284° |
| 2026-05-07 15:26 | 26.62591 | 81.38481 | 35837 ft | 430 kts | 284° |
| 2026-05-07 15:26 | 26.64286 | 81.32058 | 35848 ft | 431 kts | 284° |
| 2026-05-07 15:27 | 26.65972 | 81.25660 | 35855 ft | 431 kts | 284° |
| 2026-05-07 15:27 | 26.67661 | 81.19233 | 35852 ft | 431 kts | 284° |
| 2026-05-07 15:28 | 26.69346 | 81.12806 | 35853 ft | 431 kts | 284° |
| 2026-05-07 15:28 | 26.71029 | 81.06374 | 35848 ft | 431 kts | 284° |
| 2026-05-07 15:29 | 26.72704 | 80.99958 | 35864 ft | 431 kts | 284° |
| 2026-05-07 15:29 | 26.74410 | 80.93536 | 35860 ft | 431 kts | 287° |
| 2026-05-07 15:30 | 26.77313 | 80.87666 | 35858 ft | 436 kts | 304° |
| 2026-05-07 15:30 | 26.81286 | 80.82495 | 35865 ft | 439 kts | 308° |
| 2026-05-07 15:31 | 26.85341 | 80.77382 | 35864 ft | 439 kts | 308° |
| 2026-05-07 15:31 | 26.89294 | 80.72243 | 35856 ft | 438 kts | 307° |
| 2026-05-07 15:32 | 26.93238 | 80.67034 | 35857 ft | 438 kts | 307° |
| 2026-05-07 15:32 | 26.97171 | 80.61815 | 35862 ft | 438 kts | 307° |
| 2026-05-07 15:33 | 27.01101 | 80.56596 | 35858 ft | 438 kts | 307° |
| 2026-05-07 15:33 | 27.05032 | 80.51367 | 35860 ft | 438 kts | 307° |
| 2026-05-07 15:34 | 27.08962 | 80.46142 | 35865 ft | 438 kts | 307° |
| 2026-05-07 15:34 | 27.12885 | 80.40912 | 35852 ft | 438 kts | 307° |
| 2026-05-07 15:35 | 27.16810 | 80.35674 | 35861 ft | 438 kts | 307° |
| 2026-05-07 15:35 | 27.20725 | 80.30440 | 35877 ft | 438 kts | 307° |
| 2026-05-07 15:36 | 27.24649 | 80.25195 | 35864 ft | 438 kts | 307° |
| 2026-05-07 15:36 | 27.28575 | 80.19950 | 35867 ft | 438 kts | 307° |
| 2026-05-07 15:37 | 27.32482 | 80.14689 | 35864 ft | 439 kts | 307° |
| 2026-05-07 15:37 | 27.36389 | 80.09424 | 35863 ft | 438 kts | 307° |
| 2026-05-07 15:38 | 27.40299 | 80.04163 | 35874 ft | 439 kts | 307° |
| 2026-05-07 15:38 | 27.44217 | 79.98892 | 35877 ft | 439 kts | 307° |
| 2026-05-07 15:39 | 27.48101 | 79.93662 | 35868 ft | 438 kts | 308° |
| 2026-05-07 15:39 | 27.52005 | 79.88399 | 35875 ft | 438 kts | 308° |
| 2026-05-07 15:40 | 27.55906 | 79.83135 | 35864 ft | 438 kts | 308° |
| 2026-05-07 15:40 | 27.59795 | 79.77874 | 35863 ft | 438 kts | 308° |
| 2026-05-07 15:41 | 27.63690 | 79.72603 | 35876 ft | 438 kts | 308° |
| 2026-05-07 15:41 | 27.67584 | 79.67326 | 35865 ft | 437 kts | 308° |
| 2026-05-07 15:42 | 27.71458 | 79.62061 | 35879 ft | 437 kts | 307° |
| 2026-05-07 15:42 | 27.74981 | 79.56493 | 35864 ft | 436 kts | 302° |
| 2026-05-07 15:43 | 27.78284 | 79.50750 | 35862 ft | 436 kts | 301° |
| 2026-05-07 15:43 | 27.81583 | 79.45008 | 35873 ft | 436 kts | 302° |
| 2026-05-07 15:44 | 27.84901 | 79.39278 | 35878 ft | 435 kts | 302° |
| 2026-05-07 15:44 | 27.88222 | 79.33558 | 35862 ft | 436 kts | 302° |
| 2026-05-07 15:45 | 27.91546 | 79.27829 | 35870 ft | 436 kts | 302° |
| 2026-05-07 15:45 | 27.94866 | 79.22095 | 35874 ft | 436 kts | 302° |
| 2026-05-07 15:46 | 27.99837 | 79.13490 | 35874 ft | 436 kts | 302° |
| 2026-05-07 15:47 | 28.03159 | 79.07737 | 35872 ft | 439 kts | 302° |
| 2026-05-07 15:47 | 28.06509 | 79.01928 | 35873 ft | 442 kts | 302° |
| 2026-05-07 15:48 | 28.09865 | 78.96099 | 35860 ft | 442 kts | 302° |
| 2026-05-07 15:48 | 28.13014 | 78.90135 | 35875 ft | 441 kts | 297° |
| 2026-05-07 15:49 | 28.15724 | 78.83906 | 35869 ft | 441 kts | 295° |
| 2026-05-07 15:49 | 28.18357 | 78.77679 | 35870 ft | 441 kts | 296° |
| 2026-05-07 15:50 | 28.21035 | 78.71422 | 35864 ft | 441 kts | 296° |
| 2026-05-07 15:50 | 28.23724 | 78.65176 | 35872 ft | 441 kts | 296° |
| 2026-05-07 15:51 | 28.26419 | 78.58924 | 35877 ft | 441 kts | 296° |
| 2026-05-07 15:51 | 28.29107 | 78.52678 | 35864 ft | 440 kts | 296° |
| 2026-05-07 15:52 | 28.31789 | 78.46432 | 35871 ft | 440 kts | 296° |
| 2026-05-07 15:52 | 28.34465 | 78.40189 | 35863 ft | 440 kts | 296° |
| 2026-05-07 15:53 | 28.37139 | 78.33936 | 35878 ft | 440 kts | 296° |
| 2026-05-07 15:53 | 28.39809 | 78.27685 | 35866 ft | 440 kts | 296° |
| 2026-05-07 15:53 | 28.41146 | 78.24554 | 35716 ft | 440 kts | 296° |
| 2026-05-07 15:54 | 28.42483 | 78.21419 | 35543 ft | 441 kts | 296° |
| 2026-05-07 15:54 | 28.43816 | 78.18293 | 35169 ft | 442 kts | 296° |
| 2026-05-07 15:54 | 28.45157 | 78.15146 | 34713 ft | 443 kts | 296° |
| 2026-05-07 15:54 | 28.46499 | 78.11993 | 34262 ft | 444 kts | 296° |
| 2026-05-07 15:55 | 28.47841 | 78.08835 | 33984 ft | 438 kts | 296° |
| 2026-05-07 15:55 | 28.49123 | 78.05792 | 33857 ft | 416 kts | 296° |
| 2026-05-07 15:55 | 28.50335 | 78.02910 | 33738 ft | 395 kts | 296° |
| 2026-05-07 15:55 | 28.51495 | 78.00157 | 33605 ft | 378 kts | 296° |
| 2026-05-07 15:56 | 28.52624 | 77.97491 | 33287 ft | 372 kts | 296° |
| 2026-05-07 15:56 | 28.53764 | 77.94856 | 32764 ft | 371 kts | 297° |
| 2026-05-07 15:56 | 28.54907 | 77.92247 | 32182 ft | 366 kts | 297° |
| 2026-05-07 15:56 | 28.56039 | 77.89673 | 31617 ft | 363 kts | 297° |
| 2026-05-07 15:57 | 28.57146 | 77.87158 | 31088 ft | 362 kts | 297° |
| 2026-05-07 15:57 | 28.58269 | 77.84607 | 30536 ft | 360 kts | 297° |
| 2026-05-07 15:57 | 28.59404 | 77.82027 | 29980 ft | 359 kts | 298° |
| 2026-05-07 15:57 | 28.60500 | 77.79526 | 29443 ft | 357 kts | 298° |
| 2026-05-07 15:58 | 28.61605 | 77.77004 | 28896 ft | 355 kts | 298° |
| 2026-05-07 15:58 | 28.62700 | 77.74505 | 28361 ft | 352 kts | 298° |
| 2026-05-07 15:58 | 28.63780 | 77.72039 | 27823 ft | 349 kts | 298° |
| 2026-05-07 15:58 | 28.64855 | 77.69578 | 27296 ft | 345 kts | 298° |
| 2026-05-07 15:59 | 28.65913 | 77.67144 | 26723 ft | 343 kts | 298° |
| 2026-05-07 15:59 | 28.66965 | 77.64719 | 26122 ft | 340 kts | 298° |
| 2026-05-07 15:59 | 28.68006 | 77.62319 | 25526 ft | 336 kts | 298° |
| 2026-05-07 15:59 | 28.69036 | 77.59945 | 24940 ft | 333 kts | 298° |
| 2026-05-07 16:00 | 28.70053 | 77.57598 | 24361 ft | 329 kts | 298° |
| 2026-05-07 16:00 | 28.71055 | 77.55284 | 23786 ft | 325 kts | 298° |
| 2026-05-07 16:00 | 28.72049 | 77.52992 | 23222 ft | 321 kts | 298° |
| 2026-05-07 16:00 | 28.73031 | 77.50726 | 22675 ft | 317 kts | 298° |
| 2026-05-07 16:01 | 28.74000 | 77.48489 | 22106 ft | 313 kts | 298° |
| 2026-05-07 16:01 | 28.74957 | 77.46279 | 21569 ft | 309 kts | 298° |
| 2026-05-07 16:01 | 28.75902 | 77.44094 | 21032 ft | 305 kts | 298° |
| 2026-05-07 16:01 | 28.76834 | 77.41939 | 20499 ft | 301 kts | 298° |
| 2026-05-07 16:02 | 28.77755 | 77.39808 | 19977 ft | 298 kts | 297° |
| 2026-05-07 16:02 | 28.78663 | 77.37706 | 19455 ft | 294 kts | 297° |
| 2026-05-07 16:02 | 28.79559 | 77.35633 | 18944 ft | 290 kts | 297° |
| 2026-05-07 16:02 | 28.80442 | 77.33582 | 18441 ft | 285 kts | 297° |
| 2026-05-07 16:03 | 28.81297 | 77.31595 | 17949 ft | 281 kts | 297° |
| 2026-05-07 16:03 | 28.82099 | 77.29599 | 17460 ft | 275 kts | 289° |
| 2026-05-07 16:03 | 28.82430 | 77.27441 | 16960 ft | 278 kts | 277° |
| 2026-05-07 16:03 | 28.82514 | 77.25235 | 16468 ft | 279 kts | 274° |
| 2026-05-07 16:04 | 28.82544 | 77.23039 | 15964 ft | 277 kts | 273° |
| 2026-05-07 16:04 | 28.82565 | 77.20840 | 15467 ft | 275 kts | 273° |
| 2026-05-07 16:04 | 28.82584 | 77.18664 | 14976 ft | 274 kts | 273° |
| 2026-05-07 16:04 | 28.82605 | 77.16501 | 14485 ft | 272 kts | 273° |
| 2026-05-07 16:05 | 28.82628 | 77.14357 | 14111 ft | 267 kts | 272° |
| 2026-05-07 16:05 | 28.82648 | 77.12244 | 13936 ft | 264 kts | 272° |
| 2026-05-07 16:05 | 28.82668 | 77.10203 | 13751 ft | 252 kts | 272° |
| 2026-05-07 16:05 | 28.82505 | 77.08231 | 13351 ft | 251 kts | 257° |
| 2026-05-07 16:06 | 28.81712 | 77.06445 | 12851 ft | 256 kts | 237° |
| 2026-05-07 16:06 | 28.80581 | 77.04860 | 12353 ft | 258 kts | 233° |
| 2026-05-07 16:06 | 28.79390 | 77.03319 | 11855 ft | 259 kts | 232° |
| 2026-05-07 16:06 | 28.78187 | 77.01782 | 11350 ft | 260 kts | 231° |
| 2026-05-07 16:07 | 28.76981 | 77.00239 | 10864 ft | 261 kts | 231° |
| 2026-05-07 16:07 | 28.75790 | 76.98711 | 10378 ft | 261 kts | 230° |
| 2026-05-07 16:07 | 28.74580 | 76.97157 | 9876 ft | 263 kts | 230° |
| 2026-05-07 16:07 | 28.73366 | 76.95597 | 9418 ft | 263 kts | 229° |
| 2026-05-07 16:08 | 28.72173 | 76.94065 | 9147 ft | 255 kts | 229° |
| 2026-05-07 16:08 | 28.71031 | 76.92593 | 9015 ft | 243 kts | 230° |
| 2026-05-07 16:08 | 28.70143 | 76.90947 | 8629 ft | 248 kts | 253° |
| 2026-05-07 16:08 | 28.69992 | 76.89644 | 8299 ft | 249 kts | 274° |
| 2026-05-07 16:09 | 28.70439 | 76.87082 | 7668 ft | 251 kts | 286° |
| 2026-05-07 16:09 | 28.70763 | 76.85787 | 7341 ft | 253 kts | 287° |
| 2026-05-07 16:09 | 28.71264 | 76.83855 | 6862 ft | 255 kts | 287° |
| 2026-05-07 16:09 | 28.71769 | 76.81915 | 6393 ft | 256 kts | 287° |
| 2026-05-07 16:10 | 28.72259 | 76.80015 | 6085 ft | 249 kts | 285° |
| 2026-05-07 16:10 | 28.72343 | 76.78010 | 5520 ft | 269 kts | 257° |
| 2026-05-07 16:10 | 28.71531 | 76.76054 | 5121 ft | 278 kts | 229° |
| 2026-05-07 16:10 | 28.70007 | 76.74748 | 4927 ft | 276 kts | 200° |
| 2026-05-07 16:11 | 28.68147 | 76.74381 | 4755 ft | 272 kts | 173° |
| 2026-05-07 16:11 | 28.66373 | 76.75013 | 4584 ft | 266 kts | 146° |
| 2026-05-07 16:11 | 28.64946 | 76.76336 | 4436 ft | 265 kts | 135° |
| 2026-05-07 16:11 | 28.63826 | 76.77962 | 4269 ft | 260 kts | 113° |
| 2026-05-07 16:12 | 28.63254 | 76.79877 | 4158 ft | 259 kts | 104° |
| 2026-05-07 16:12 | 28.62815 | 76.81861 | 3996 ft | 258 kts | 103° |
| 2026-05-07 16:12 | 28.62389 | 76.83826 | 3693 ft | 250 kts | 103° |
| 2026-05-07 16:12 | 28.61981 | 76.85661 | 3385 ft | 224 kts | 103° |
| 2026-05-07 16:13 | 28.61611 | 76.87299 | 3139 ft | 203 kts | 103° |
| 2026-05-07 16:13 | 28.61281 | 76.88751 | 2902 ft | 177 kts | 103° |
| 2026-05-07 16:13 | 28.60989 | 76.90021 | 2732 ft | 159 kts | 103° |
| 2026-05-07 16:13 | 28.60712 | 76.91226 | 2660 ft | 156 kts | 103° |
| 2026-05-07 16:14 | 28.60439 | 76.92412 | 2616 ft | 155 kts | 103° |
| 2026-05-07 16:14 | 28.60169 | 76.93587 | 2602 ft | 152 kts | 103° |
| 2026-05-07 16:14 | 28.59900 | 76.94746 | 2613 ft | 151 kts | 104° |
| 2026-05-07 16:14 | 28.59634 | 76.95900 | 2605 ft | 151 kts | 103° |
| 2026-05-07 16:15 | 28.59367 | 76.97058 | 2614 ft | 151 kts | 103° |
| 2026-05-07 16:15 | 28.59103 | 76.98217 | 2571 ft | 152 kts | 103° |
| 2026-05-07 16:15 | 28.58836 | 76.99377 | 2366 ft | 150 kts | 104° |
| 2026-05-07 16:15 | 28.58569 | 77.00522 | 2156 ft | 149 kts | 104° |
| 2026-05-07 16:16 | 28.58307 | 77.01660 | 1964 ft | 149 kts | 105° |
| 2026-05-07 16:16 | 28.58044 | 77.02797 | 1772 ft | 148 kts | 105° |
| 2026-05-07 16:16 | 28.57782 | 77.03929 | 1572 ft | 148 kts | 105° |
| 2026-05-07 16:16 | 28.57521 | 77.05058 | 1372 ft | 147 kts | 105° |
| 2026-05-07 16:17 | 28.57259 | 77.06187 | 1175 ft | 148 kts | 105° |
| 2026-05-07 16:17 | 28.56998 | 77.07320 | 986 ft | 148 kts | 105° |
| 2026-05-07 16:17 | 28.56738 | 77.08456 | 786 ft | 149 kts | 104° |
| 2026-05-07 16:17 | 28.56514 | 77.09417 | 749 ft | 90 kts | 105° |
| 2026-05-07 16:18 | 28.56395 | 77.09915 | 758 ft | 57 kts | 105° |
| 2026-05-07 16:18 | 28.56303 | 77.10313 | 765 ft | 48 kts | 105° |
| 2026-05-07 16:18 | 28.56228 | 77.10633 | 770 ft | 38 kts | 105° |
| 2026-05-07 16:18 | 28.56130 | 77.10870 | 774 ft | 27 kts | 128° |
| 2026-05-07 16:19 | 28.56080 | 77.10932 | 774 ft | 0 kts | 134° |
| 2026-05-07 16:19 | 28.56079 | 77.10933 | 774 ft | 0 kts | 134° |
| 2026-05-07 16:19 | 28.56072 | 77.10942 | 774 ft | 3 kts | 134° |
| 2026-05-07 16:20 | 28.56046 | 77.10969 | 775 ft | 6 kts | 147° |
| 2026-05-07 16:20 | 28.56005 | 77.10971 | 775 ft | 6 kts | 197° |
| 2026-05-07 16:20 | 28.55983 | 77.10940 | 775 ft | 6 kts | 248° |
| 2026-05-07 16:20 | 28.55983 | 77.10885 | 774 ft | 8 kts | 282° |
| 2026-05-07 16:21 | 28.56001 | 77.10800 | 773 ft | 13 kts | 285° |
| 2026-05-07 16:21 | 28.56028 | 77.10683 | 772 ft | 18 kts | 285° |
| 2026-05-07 16:21 | 28.56062 | 77.10530 | 770 ft | 22 kts | 284° |
| 2026-05-07 16:21 | 28.56061 | 77.10414 | 768 ft | 12 kts | 229° |
| 2026-05-07 16:22 | 28.55998 | 77.10388 | 768 ft | 8 kts | 191° |
| 2026-05-07 16:22 | 28.55952 | 77.10376 | 768 ft | 7 kts | 194° |
| 2026-05-07 16:22 | 28.55893 | 77.10359 | 768 ft | 11 kts | 193° |
| 2026-05-07 16:22 | 28.55840 | 77.10326 | 769 ft | 7 kts | 235° |
| 2026-05-07 16:23 | 28.55834 | 77.10278 | 768 ft | 6 kts | 275° |
| 2026-05-07 16:23 | 28.55849 | 77.10236 | 767 ft | 5 kts | 306° |
| 2026-05-07 16:23 | 28.55869 | 77.10226 | 767 ft | 2 kts | 345° |
| 2026-05-07 16:23 | 28.55882 | 77.10226 | 767 ft | 2 kts | 4° |
| 2026-05-07 16:24 | 28.55898 | 77.10233 | 767 ft | 2 kts | 22° |
| 2026-05-07 16:24 | 28.55912 | 77.10240 | 767 ft | 2 kts | 21° |
| 2026-05-07 16:24 | 28.55924 | 77.10245 | 767 ft | 2 kts | 18° |
| 2026-05-07 16:24 | 28.55935 | 77.10248 | 767 ft | 2 kts | 17° |
| 2026-05-07 16:25 | 28.55936 | 77.10249 | 767 ft | 0 kts | 17° |